createdAt,value
2022-11-16T00:03:32.937Z,85.32
2022-11-16T00:08:42.830Z,85.34
2022-11-16T00:13:50.670Z,85.36
2022-11-16T00:19:00.856Z,85.50
2022-11-16T00:24:11.733Z,85.45
2022-11-16T00:29:21.796Z,85.47
2022-11-16T00:34:29.730Z,85.31
2022-11-16T00:39:37.577Z,85.32
2022-11-16T00:44:45.453Z,85.34
2022-11-16T00:49:53.653Z,85.47
2022-11-16T00:55:01.991Z,85.37
2022-11-16T01:00:12.847Z,85.36
2022-11-16T01:05:21.438Z,85.49
2022-11-16T01:10:30.486Z,85.61
2022-11-16T01:15:40.649Z,85.42
2022-11-16T01:20:48.936Z,85.42
2022-11-16T01:26:01.927Z,85.38
2022-11-16T01:31:12.608Z,85.50
2022-11-16T01:36:21.445Z,85.52
2022-11-16T01:41:28.134Z,85.49
2022-11-16T01:46:38.855Z,85.56
2022-11-16T01:51:54.842Z,85.55
2022-11-16T01:57:10.165Z,85.46
2022-11-16T02:02:21.488Z,85.49
2022-11-16T02:07:56.851Z,85.50
2022-11-16T02:13:28.822Z,85.47
2022-11-16T02:18:42.804Z,85.62
2022-11-16T02:24:21.181Z,85.67
2022-11-16T02:29:34.067Z,85.37
2022-11-16T02:34:46.422Z,85.31
2022-11-16T02:39:58.637Z,85.39
2022-11-16T02:45:11.350Z,85.48
2022-11-16T02:50:23.473Z,85.48
2022-11-16T02:55:36.925Z,85.54
2022-11-16T03:00:49.622Z,85.69
2022-11-16T03:06:04.835Z,85.62
2022-11-16T03:11:31.999Z,85.51
2022-11-16T03:16:44.417Z,85.41
2022-11-16T03:21:57.576Z,85.46
2022-11-16T03:27:12.776Z,85.41
2022-11-16T03:32:26.144Z,85.37
2022-11-16T03:37:37.157Z,85.52
2022-11-16T03:42:49.584Z,85.44
2022-11-16T03:47:57.411Z,85.47
2022-11-16T03:53:06.079Z,85.40
2022-11-16T03:58:18.749Z,85.45
2022-11-16T04:03:27.056Z,85.47
2022-11-16T04:08:52.733Z,85.59
2022-11-16T04:14:18.293Z,85.58
2022-11-16T04:19:44.043Z,85.52
2022-11-16T04:24:55.516Z,85.50
2022-11-16T04:30:05.584Z,85.53
2022-11-16T04:35:43.504Z,85.49
2022-11-16T04:40:51.409Z,85.57
2022-11-16T04:46:16.697Z,85.45
2022-11-16T04:51:24.545Z,85.52
2022-11-16T04:56:30.864Z,85.54
2022-11-16T05:01:56.824Z,85.60
2022-11-16T05:07:04.955Z,85.63
2022-11-16T05:12:15.905Z,85.58
2022-11-16T05:17:25.416Z,85.57
2022-11-16T05:22:33.873Z,85.61
2022-11-16T05:27:42.783Z,85.71
2022-11-16T05:32:48.981Z,85.59
2022-11-16T05:37:57.221Z,85.53
2022-11-16T05:43:05.059Z,85.50
2022-11-16T05:48:15.928Z,85.62
2022-11-16T05:53:24.617Z,85.65
2022-11-16T05:58:33.086Z,85.59
2022-11-16T06:03:41.818Z,85.55
2022-11-16T06:08:49.988Z,85.56
2022-11-16T06:14:01.577Z,85.41
2022-11-16T06:19:09.314Z,85.50
2022-11-16T06:24:15.958Z,85.33
2022-11-16T06:29:24.103Z,85.42
2022-11-16T06:34:32.942Z,85.40
2022-11-16T06:39:40.763Z,85.30
2022-11-16T06:44:49.956Z,85.21
2022-11-16T06:49:59.497Z,85.13
2022-11-16T06:55:06.497Z,85.09
2022-11-16T07:00:17.454Z,85.07
2022-11-16T07:05:25.940Z,84.84
2022-11-16T07:10:36.646Z,84.85
2022-11-16T07:15:44.651Z,84.89
2022-11-16T07:20:51.021Z,84.87
2022-11-16T07:26:02.455Z,84.75
2022-11-16T07:31:17.469Z,84.56
2022-11-16T07:36:25.942Z,84.54
2022-11-16T07:41:35.375Z,84.41
2022-11-16T07:46:54.039Z,84.40
2022-11-16T07:52:03.800Z,84.25
2022-11-16T07:57:16.323Z,84.18
2022-11-16T08:02:25.719Z,84.16
2022-11-16T08:07:35.969Z,83.90
2022-11-16T08:12:43.924Z,83.84
2022-11-16T08:17:50.424Z,83.77
2022-11-16T08:23:03.071Z,83.75
2022-11-16T08:28:14.665Z,83.73
2022-11-16T08:33:24.707Z,83.64
2022-11-16T08:38:33.944Z,83.50
2022-11-16T08:43:42.415Z,83.47
2022-11-16T08:48:50.483Z,83.32
2022-11-16T08:54:01.824Z,83.29
2022-11-16T08:59:09.772Z,83.36
2022-11-16T09:04:20.559Z,83.48
2022-11-16T09:09:28.560Z,83.43
2022-11-16T09:14:36.215Z,83.34
2022-11-16T09:19:43.836Z,83.23
2022-11-16T09:24:51.775Z,83.07
2022-11-16T09:29:59.414Z,83.15
2022-11-16T09:35:08.124Z,83.23
2022-11-16T09:40:16.158Z,83.18
2022-11-16T09:45:26.096Z,82.97
2022-11-16T09:50:42.025Z,82.87
2022-11-16T09:55:53.735Z,82.77
2022-11-16T10:01:09.126Z,82.73
2022-11-16T10:06:24.023Z,82.82
2022-11-16T10:11:52.934Z,82.75
2022-11-16T10:17:07.419Z,82.69
2022-11-16T10:22:29.332Z,82.69
2022-11-16T10:27:54.132Z,82.71
2022-11-16T10:33:11.076Z,82.66
2022-11-16T10:38:23.736Z,82.56
2022-11-16T10:43:33.777Z,82.30
2022-11-16T10:48:50.397Z,82.18
2022-11-16T10:53:58.301Z,82.10
2022-11-16T10:59:07.998Z,82.03
2022-11-16T11:04:23.616Z,81.98
2022-11-16T11:09:33.948Z,82.01
2022-11-16T11:15:01.245Z,81.85
2022-11-16T11:20:22.080Z,81.72
2022-11-16T11:25:34.502Z,81.75
2022-11-16T11:30:42.516Z,81.56
2022-11-16T11:35:58.097Z,81.61
2022-11-16T11:41:06.526Z,81.60
2022-11-16T11:46:20.415Z,81.65
2022-11-16T11:51:34.783Z,81.70
2022-11-16T11:56:42.640Z,81.46
2022-11-16T12:02:11.050Z,81.49
2022-11-16T12:07:33.198Z,81.34
2022-11-16T12:12:51.866Z,81.46
2022-11-16T12:18:11.545Z,81.49
2022-11-16T12:23:32.492Z,81.25
2022-11-16T12:28:58.201Z,81.39
2022-11-16T12:34:17.015Z,81.30
2022-11-16T12:39:33.423Z,81.38
2022-11-16T12:44:59.844Z,81.40
2022-11-16T12:50:17.739Z,81.31
2022-11-16T12:55:35.927Z,81.20
2022-11-16T13:00:54.770Z,81.22
2022-11-16T13:06:06.123Z,81.25
2022-11-16T13:11:17.607Z,81.18
2022-11-16T13:16:27.161Z,81.01
2022-11-16T13:21:44.528Z,80.86
2022-11-16T13:27:01.953Z,80.98
2022-11-16T13:32:15.334Z,80.94
2022-11-16T13:37:44.631Z,80.87
2022-11-16T13:43:06.147Z,80.77
2022-11-16T13:48:21.170Z,80.71
2022-11-16T13:59:01.286Z,80.65
2022-11-16T14:04:35.231Z,80.56
2022-11-16T14:09:49.904Z,80.53
2022-11-16T14:15:17.068Z,80.48
2022-11-16T14:20:44.137Z,80.56
2022-11-16T14:25:56.786Z,80.56
2022-11-16T14:31:15.815Z,80.39
2022-11-16T14:36:38.869Z,80.38
2022-11-16T14:41:48.470Z,80.41
2022-11-16T14:46:55.852Z,80.40
2022-11-16T14:52:07.031Z,80.30
2022-11-16T14:57:21.249Z,80.34
2022-11-16T15:02:29.358Z,80.43
2022-11-16T15:07:36.383Z,80.45
2022-11-16T15:12:51.471Z,80.36
2022-11-16T15:18:13.071Z,80.29
2022-11-16T15:23:23.837Z,80.29
2022-11-16T15:28:34.962Z,80.38
2022-11-16T15:33:45.328Z,80.44
2022-11-16T15:38:54.082Z,80.26
2022-11-16T15:44:14.442Z,80.18
2022-11-16T15:49:30.091Z,80.25
2022-11-16T15:54:52.025Z,80.11
2022-11-16T15:59:59.294Z,80.24
2022-11-16T16:05:07.082Z,80.24
2022-11-16T16:10:25.867Z,80.26
2022-11-16T16:15:36.230Z,80.14
2022-11-16T16:20:49.993Z,80.29
2022-11-16T16:25:56.832Z,80.16
2022-11-16T16:31:03.746Z,80.16
2022-11-16T16:36:13.801Z,80.08
2022-11-16T16:41:24.466Z,80.15
2022-11-16T16:46:31.743Z,80.10
2022-11-16T16:51:38.623Z,80.16
2022-11-16T16:56:45.599Z,80.12
2022-11-16T17:01:53.028Z,80.25
2022-11-16T17:07:00.085Z,80.04
2022-11-16T17:12:07.506Z,80.01
2022-11-16T17:17:14.457Z,80.08
2022-11-16T17:22:22.284Z,79.98
2022-11-16T17:27:29.246Z,79.91
2022-11-16T17:32:36.156Z,79.92
2022-11-16T17:37:43.586Z,79.90
2022-11-16T17:42:50.522Z,79.84
2022-11-16T17:47:57.492Z,79.84
2022-11-16T17:53:04.460Z,79.92
2022-11-16T17:58:11.401Z,79.91
2022-11-16T18:03:18.448Z,79.75
2022-11-16T18:08:25.546Z,79.77
2022-11-16T18:13:32.872Z,79.63
2022-11-16T18:18:43.173Z,79.82
2022-11-16T18:23:50.251Z,79.72
2022-11-16T18:28:57.129Z,79.73
2022-11-16T18:34:04.461Z,79.63
2022-11-16T18:39:11.483Z,79.57
2022-11-16T18:44:18.420Z,79.62
2022-11-16T18:49:25.280Z,79.66
2022-11-16T18:54:32.222Z,79.61
2022-11-16T18:59:39.351Z,79.61
2022-11-16T19:04:46.337Z,79.58
2022-11-16T19:09:53.505Z,79.52
2022-11-16T19:15:00.601Z,79.66
2022-11-16T19:20:09.033Z,79.62
2022-11-16T19:25:21.518Z,79.41
2022-11-16T19:30:28.494Z,79.49
2022-11-16T19:35:35.431Z,79.44
2022-11-16T19:40:42.306Z,79.42
2022-11-16T19:45:49.276Z,79.26
2022-11-16T19:50:56.198Z,79.36
2022-11-16T19:56:03.423Z,79.40
2022-11-16T20:01:13.223Z,79.32
2022-11-16T20:06:22.730Z,79.41
2022-11-16T20:11:31.688Z,79.34
2022-11-16T20:16:39.837Z,79.50
2022-11-16T20:21:46.826Z,79.28
2022-11-16T20:26:53.837Z,79.25
2022-11-16T20:32:00.683Z,79.20
2022-11-16T20:37:08.699Z,79.28
2022-11-16T20:42:15.657Z,79.19
2022-11-16T20:47:22.511Z,79.32
2022-11-16T20:52:29.405Z,79.21
2022-11-16T20:57:36.403Z,79.17
2022-11-16T21:02:43.304Z,79.17
2022-11-16T21:07:50.194Z,79.35
2022-11-16T21:13:16.827Z,79.19
2022-11-16T21:18:30.377Z,79.29
2022-11-16T21:23:40.129Z,79.35
2022-11-16T21:28:47.487Z,79.26
2022-11-16T21:33:55.479Z,79.32
2022-11-16T21:39:01.499Z,79.25
2022-11-16T21:44:10.220Z,79.16
2022-11-16T21:49:17.130Z,79.18
2022-11-16T21:54:44.283Z,79.24
2022-11-16T21:59:51.495Z,79.26
2022-11-16T22:05:21.557Z,79.13
2022-11-16T22:10:28.720Z,79.19
2022-11-16T22:15:35.845Z,79.12
2022-11-16T22:20:42.995Z,79.19
2022-11-16T22:25:50.042Z,79.23
2022-11-16T22:31:04.433Z,79.10
2022-11-16T22:36:13.499Z,79.18
2022-11-16T22:41:21.179Z,79.04
2022-11-16T22:46:28.174Z,79.08
2022-11-16T22:51:35.242Z,79.24
2022-11-16T22:56:42.678Z,79.04
2022-11-16T23:01:49.534Z,78.97
2022-11-16T23:06:56.519Z,79.02
2022-11-16T23:12:21.146Z,79.13
2022-11-16T23:17:28.138Z,79.22
2022-11-16T23:22:52.951Z,79.16
2022-11-16T23:28:04.385Z,79.20
2022-11-16T23:33:11.759Z,79.15
2022-11-16T23:38:18.736Z,79.09
2022-11-16T23:43:43.577Z,79.12
2022-11-16T23:48:50.536Z,79.11
2022-11-16T23:53:57.972Z,79.20
2022-11-16T23:59:04.876Z,79.08
